Time;durP1;ratioP1;P1;durP2;ratioP2;P2;SDS_P1;SDS_P2;PMS_P1;PMS_P2;Temp;Humidity;BMP_temperature;BMP_pressure;BME280_temperature;BME280_humidity;BME280_pressure;Samples;Min_cycle;Max_cycle;Signal;HPM_P1;HPM_P2
2023/06/13 05:54:33;;;;;;;5.60;5.10;;;;;;;;;;10396367;22;1450810;-77
2023/06/13 05:59:33;;;;;;;4.70;4.25;;;;;;;;;;10412538;28;20048;-79
2023/06/13 06:04:35;;;;;;;7.15;5.03;;;;;;;;;;10433469;28;20041;-80
2023/06/13 06:09:35;;;;;;;6.30;4.90;;;;;;;;;;10414768;28;20033;-78
2023/06/13 06:14:36;;;;;;;9.85;5.20;;;;;;;;;;10407542;28;20478;-79
2023/06/13 06:19:36;;;;;;;5.20;4.70;;;;;;;;;;10411057;28;20038;-79
2023/06/13 06:24:38;;;;;;;5.38;4.80;;;;;;;;;;10407349;28;20287;-78
2023/06/13 06:29:39;;;;;;;6.70;4.70;;;;;;;;;;10405374;28;20033;-79
2023/06/13 06:34:39;;;;;;;5.95;4.70;;;;;;;;;;10411337;28;20041;-80
2023/06/13 06:39:41;;;;;;;5.88;4.40;;;;;;;;;;10410535;28;20029;-82
2023/06/13 06:44:42;;;;;;;6.20;4.40;;;;;;;;;;10402934;28;20116;-82
2023/06/13 06:49:43;;;;;;;4.88;4.38;;;;;;;;;;10364459;28;20089;-80
2023/06/13 06:54:43;;;;;;;5.97;4.30;;;;;;;;;;10367883;28;20103;-77
2023/06/13 06:59:44;;;;;;;6.25;4.50;;;;;;;;;;10371013;28;20280;-81
2023/06/13 07:04:45;;;;;;;6.22;4.45;;;;;;;;;;10383349;28;20524;-81
2023/06/13 07:09:46;;;;;;;5.70;4.65;;;;;;;;;;10360872;28;20038;-80
2023/06/13 07:14:46;;;;;;;4.50;4.10;;;;;;;;;;10362285;28;20042;-81
2023/06/13 07:19:46;;;;;;;5.10;3.90;;;;;;;;;;10351347;28;20030;-82
2023/06/13 07:24:47;;;;;;;4.93;3.87;;;;;;;;;;10345677;28;20036;-82
2023/06/13 07:29:47;;;;;;;4.43;3.60;;;;;;;;;;10342808;28;20053;-83
2023/06/13 07:34:49;;;;;;;4.53;4.13;;;;;;;;;;10337654;28;20705;-83
2023/06/13 07:39:50;;;;;;;5.88;4.05;;;;;;;;;;10339322;28;20452;-78
2023/06/13 07:44:50;;;;;;;5.77;3.63;;;;;;;;;;10336317;28;20041;-79
2023/06/13 07:49:50;;;;;;;4.10;3.67;;;;;;;;;;10340614;28;20176;-78
2023/06/13 07:54:51;;;;;;;4.90;3.40;;;;;;;;;;10333460;28;20112;-81
2023/06/13 07:59:52;;;;;;;4.18;3.78;;;;;;;;;;10334094;28;20034;-79
2023/06/13 08:04:53;;;;;;;4.57;3.20;;;;;;;;;;10336301;28;20042;-79
2023/06/13 08:09:53;;;;;;;4.17;3.40;;;;;;;;;;10332052;28;20092;-79
2023/06/13 08:14:53;;;;;;;6.60;3.50;;;;;;;;;;10328167;28;20069;-80
2023/06/13 08:19:54;;;;;;;6.53;3.40;;;;;;;;;;10333128;28;20080;-78
2023/06/13 08:24:55;;;;;;;5.03;3.53;;;;;;;;;;10331440;28;20038;-85
2023/06/13 08:29:56;;;;;;;6.53;3.85;;;;;;;;;;10334948;28;20041;-80
2023/06/13 08:34:58;;;;;;;;;;;;;;;;;;10333850;28;20132;-80
2023/06/13 08:39:58;;;;;;;4.82;3.97;;;;;;;;;;10334236;28;20396;-79
2023/06/13 08:45:00;;;;;;;4.07;3.40;;;;;;;;;;10347436;28;20045;-78
2023/06/13 08:50:01;;;;;;;8.18;4.07;;;;;;;;;;10343705;28;20045;-80
2023/06/13 08:55:03;;;;;;;4.27;3.40;;;;;;;;;;10363337;28;20479;-78
2023/06/13 09:00:06;;;;;;;4.27;3.53;;;;;;;;;;10378518;28;20381;-77
2023/06/13 09:05:07;;;;;;;4.07;3.25;;;;;;;;;;10378572;28;20038;-79
2023/06/13 09:10:10;;;;;;;7.93;3.90;;;;;;;;;;10340406;28;20081;-80
2023/06/13 09:15:10;;;;;;;4.93;4.20;;;;;;;;;;10335999;28;20332;-80
2023/06/13 09:20:11;;;;;;;4.13;3.45;;;;;;;;;;10331349;28;20057;-80
2023/06/13 09:25:16;;;;;;;5.27;3.87;;;;;;;;;;10336368;28;20066;-78
2023/06/13 09:30:16;;;;;;;5.38;4.00;;;;;;;;;;10336488;28;20301;-80
2023/06/13 09:35:17;;;;;;;4.38;3.97;;;;;;;;;;10342854;28;20049;-82
2023/06/13 09:40:18;;;;;;;5.70;3.55;;;;;;;;;;10341976;28;20045;-80
2023/06/13 09:45:19;;;;;;;4.53;3.83;;;;;;;;;;10331106;28;20053;-81
2023/06/13 09:50:21;;;;;;;4.50;3.60;;;;;;;;;;10332329;28;20305;-78
2023/06/13 09:55:22;;;;;;;5.78;3.92;;;;;;;;;;10328672;28;20042;-82
2023/06/13 10:00:23;;;;;;;5.38;3.72;;;;;;;;;;10328314;28;20046;-78
2023/06/13 10:05:24;;;;;;;3.60;3.30;;;;;;;;;;10326881;28;20049;-73
2023/06/13 10:10:24;;;;;;;4.10;3.53;;;;;;;;;;10341530;28;20034;-73
2023/06/13 10:15:39;;;;;;;6.15;3.50;;;;;;;;;;10336135;28;20030;-75
2023/06/13 10:20:41;;;;;;;9.02;3.58;;;;;;;;;;10334441;28;20733;-72
2023/06/13 10:25:43;;;;;;;8.63;3.90;;;;;;;;;;10342014;28;20121;-72
2023/06/13 10:30:59;;;;;;;3.85;3.47;;;;;;;;;;10334653;28;20034;-70
2023/06/13 10:36:14;;;;;;;4.72;3.42;;;;;;;;;;10331489;28;20045;-72
2023/06/13 10:41:33;;;;;;;3.90;3.55;;;;;;;;;;10340945;28;20042;-72
2023/06/13 10:46:34;;;;;;;6.00;3.60;;;;;;;;;;10346144;28;20045;-73
2023/06/13 10:51:36;;;;;;;4.97;3.50;;;;;;;;;;10342775;28;20041;-73
2023/06/13 10:56:39;;;;;;;5.50;3.63;;;;;;;;;;10345330;28;20498;-74
2023/06/13 11:01:40;;;;;;;4.20;3.80;;;;;;;;;;10342010;28;20734;-74
2023/06/13 11:06:41;;;;;;;5.47;3.20;;;;;;;;;;10343532;28;20212;-73
2023/06/13 11:11:43;;;;;;;4.10;3.70;;;;;;;;;;10342200;28;20077;-74
2023/06/13 11:16:45;;;;;;;7.90;3.73;;;;;;;;;;10340684;28;20046;-74
2023/06/13 11:22:05;;;;;;;4.78;3.58;;;;;;;;;;10335426;28;20049;-74
2023/06/13 11:27:11;;;;;;;3.80;3.50;;;;;;;;;;10342632;28;20436;-76
2023/06/13 11:32:12;;;;;;;5.45;3.75;;;;;;;;;;10348364;28;20103;-71
2023/06/13 11:37:30;;;;;;;4.83;3.37;;;;;;;;;;10343844;28;20052;-75
2023/06/13 11:42:30;;;;;;;3.67;3.38;;;;;;;;;;10343703;28;20053;-69
2023/06/13 11:47:31;;;;;;;4.27;3.87;;;;;;;;;;10340758;28;20037;-72
2023/06/13 11:52:31;;;;;;;4.13;3.00;;;;;;;;;;10342592;28;20415;-76
2023/06/13 11:57:45;;;;;;;4.55;3.10;;;;;;;;;;10347644;28;20069;-71
2023/06/13 12:02:45;;;;;;;5.50;3.50;;;;;;;;;;10342325;28;20039;-72
2023/06/13 12:07:46;;;;;;;3.45;3.10;;;;;;;;;;10341042;28;20112;-73
2023/06/13 12:12:58;;;;;;;4.18;3.47;;;;;;;;;;10344314;28;20076;-74
2023/06/13 12:18:00;;;;;;;4.53;3.42;;;;;;;;;;10337451;28;20497;-75
2023/06/13 12:23:01;;;;;;;5.45;3.20;;;;;;;;;;10340261;28;20041;-76
2023/06/13 12:28:01;;;;;;;3.88;3.25;;;;;;;;;;10339968;28;20053;-73
2023/06/13 12:33:04;;;;;;;6.80;3.65;;;;;;;;;;10340769;28;20072;-71
2023/06/13 12:38:04;;;;;;;7.07;3.17;;;;;;;;;;10339926;28;20040;-76
2023/06/13 12:43:04;;;;;;;4.20;3.22;;;;;;;;;;10335282;28;20052;-72
2023/06/13 12:48:05;;;;;;;5.30;3.50;;;;;;;;;;10347216;28;20034;-73
2023/06/13 12:53:06;;;;;;;3.72;3.30;;;;;;;;;;10340145;28;20044;-71
2023/06/13 12:58:25;;;;;;;3.92;2.97;;;;;;;;;;10341551;28;20038;-72
2023/06/13 13:03:25;;;;;;;3.60;3.30;;;;;;;;;;10342519;28;20621;-75
2023/06/13 13:08:26;;;;;;;3.80;3.15;;;;;;;;;;10345079;28;20111;-76
2023/06/13 13:13:26;;;;;;;5.40;3.35;;;;;;;;;;10339823;28;20042;-74
2023/06/13 13:18:27;;;;;;;6.00;3.27;;;;;;;;;;10337245;28;20027;-74
2023/06/13 13:23:29;;;;;;;3.90;3.03;;;;;;;;;;10337634;28;20403;-74
2023/06/13 13:28:29;;;;;;;;;;;;;;;;;;10347775;28;20052;-74
2023/06/13 13:33:30;;;;;;;4.25;3.20;;;;;;;;;;10359150;28;19918;-78
2023/06/13 13:38:30;;;;;;;5.57;3.67;;;;;;;;;;10403907;28;20022;-81
2023/06/13 13:43:33;;;;;;;4.47;3.37;;;;;;;;;;10415884;28;20085;-80
2023/06/13 13:48:38;;;;;;;4.30;3.38;;;;;;;;;;10398149;28;20034;-83
2023/06/13 13:53:39;;;;;;;3.63;3.30;;;;;;;;;;10359594;28;20049;-82
2023/06/13 13:58:40;;;;;;;3.87;3.30;;;;;;;;;;10367235;28;20021;-81
2023/06/13 14:03:41;;;;;;;4.30;3.63;;;;;;;;;;10380858;28;20058;-81
2023/06/13 14:08:41;;;;;;;4.70;3.37;;;;;;;;;;10357351;28;20380;-82
2023/06/13 14:13:42;;;;;;;4.07;3.30;;;;;;;;;;10360404;28;20049;-83
2023/06/13 14:18:44;;;;;;;4.00;3.13;;;;;;;;;;10384140;28;20484;-81
2023/06/13 14:23:45;;;;;;;3.63;3.33;;;;;;;;;;10401476;28;20053;-82
2023/06/13 14:28:48;;;;;;;3.65;3.28;;;;;;;;;;10411056;28;20037;-86
2023/06/13 14:33:49;;;;;;;3.58;3.28;;;;;;;;;;10411077;28;20044;-92
2023/06/13 14:38:50;;;;;;;6.67;3.60;;;;;;;;;;10413301;28;20482;-90
2023/06/13 14:54:48;;;;;;;4.78;3.67;;;;;;;;;;10443878;23;20141;-88
2023/06/13 14:59:49;;;;;;;7.00;3.85;;;;;;;;;;10341154;28;20031;-89
2023/06/13 15:04:49;;;;;;;5.33;3.70;;;;;;;;;;10330127;28;20046;-84
2023/06/13 15:09:50;;;;;;;5.00;3.47;;;;;;;;;;10331591;28;20019;-86
2023/06/13 15:14:52;;;;;;;8.68;4.03;;;;;;;;;;10325087;28;20309;-83
2023/06/13 15:19:54;;;;;;;11.48;3.70;;;;;;;;;;10317133;28;20035;-84
2023/06/13 15:24:55;;;;;;;4.00;3.40;;;;;;;;;;10299438;28;20455;-84
2023/06/13 15:29:56;;;;;;;4.55;3.50;;;;;;;;;;10292404;28;20065;-84
2023/06/13 15:34:56;;;;;;;4.07;3.60;;;;;;;;;;10291072;28;20039;-86
2023/06/13 15:39:57;;;;;;;6.07;3.73;;;;;;;;;;10304306;28;20038;-83
2023/06/13 15:44:59;;;;;;;8.30;3.53;;;;;;;;;;10310287;28;20042;-84
2023/06/13 15:49:59;;;;;;;;;;;;;;;;;;10288138;28;20050;-82
2023/06/13 15:55:00;;;;;;;10.80;4.28;;;;;;;;;;10283393;28;20006;-82
2023/06/13 16:00:00;;;;;;;9.73;3.90;;;;;;;;;;10296222;28;20030;-85
2023/06/13 16:05:02;;;;;;;4.00;3.60;;;;;;;;;;10269943;28;20050;-88
2023/06/13 16:10:05;;;;;;;;;;;;;;;;;;10281870;28;20039;-89
2023/06/13 16:15:06;;;;;;;5.25;3.78;;;;;;;;;;10264901;28;20414;-85
2023/06/13 16:20:06;;;;;;;4.90;3.77;;;;;;;;;;10285045;28;20149;-86
2023/06/13 16:25:07;;;;;;;4.25;3.83;;;;;;;;;;10260698;28;20114;-85
2023/06/13 16:30:09;;;;;;;5.93;4.28;;;;;;;;;;10280562;28;20150;-84
2023/06/13 16:35:10;;;;;;;4.20;3.80;;;;;;;;;;10256914;28;20031;-75
2023/06/13 16:40:11;;;;;;;4.20;3.45;;;;;;;;;;10260893;28;20039;-74
2023/06/13 16:45:11;;;;;;;8.20;6.72;;;;;;;;;;10249833;28;20782;-73
2023/06/13 16:50:12;;;;;;;5.03;4.53;;;;;;;;;;10243309;28;20042;-74
2023/06/13 16:55:13;;;;;;;5.20;3.90;;;;;;;;;;10250527;28;20034;-73
2023/06/13 17:00:13;;;;;;;4.35;3.35;;;;;;;;;;10247901;28;20587;-72
2023/06/13 17:05:13;;;;;;;5.88;3.67;;;;;;;;;;10257815;28;20035;-75
2023/06/13 17:10:16;;;;;;;4.63;3.23;;;;;;;;;;10261673;28;20518;-74
2023/06/13 17:15:16;;;;;;;5.03;3.88;;;;;;;;;;10265608;28;21258;-74
2023/06/13 17:20:17;;;;;;;5.18;3.95;;;;;;;;;;10260456;28;20042;-72
2023/06/13 17:25:18;;;;;;;5.43;3.80;;;;;;;;;;10260657;28;20066;-76
2023/06/13 17:30:19;;;;;;;4.18;3.78;;;;;;;;;;10261890;28;20333;-77
2023/06/13 17:35:20;;;;;;;4.17;3.77;;;;;;;;;;10267479;28;20038;-76
2023/06/13 17:40:35;;;;;;;4.32;3.50;;;;;;;;;;10259072;28;20309;-72
2023/06/13 17:45:36;;;;;;;5.20;3.80;;;;;;;;;;10262172;28;20594;-72
2023/06/13 17:50:36;;;;;;;4.57;3.80;;;;;;;;;;10262266;28;20049;-69
2023/06/13 17:55:37;;;;;;;4.75;4.10;;;;;;;;;;10318951;28;20314;-87
2023/06/13 18:00:42;;;;;;;4.90;4.30;;;;;;;;;;10492011;23;20109;-86
2023/06/13 18:16:50;;;;;;;4.13;3.67;;;;;;;;;;10932293;23;20043;-89
2023/06/13 18:21:54;;;;;;;5.40;4.18;;;;;;;;;;10307465;28;20138;-84
2023/06/13 18:27:11;;;;;;;7.35;4.10;;;;;;;;;;10285354;28;20050;-86
2023/06/13 18:32:42;;;;;;;6.63;5.68;;;;;;;;;;10298363;28;20043;-91
2023/06/13 18:37:42;;;;;;;5.15;4.10;;;;;;;;;;10283057;28;20093;-84
2023/06/13 18:42:44;;;;;;;6.63;3.90;;;;;;;;;;10266896;28;20122;-86
2023/06/13 18:47:45;;;;;;;4.18;3.60;;;;;;;;;;10289099;28;20119;-84
2023/06/13 18:52:48;;;;;;;4.55;4.10;;;;;;;;;;10275921;28;20058;-84
2023/06/13 18:58:00;;;;;;;4.75;4.25;;;;;;;;;;10267489;28;20350;-84
2023/06/13 19:03:06;;;;;;;5.07;4.18;;;;;;;;;;10310127;28;20114;-84
2023/06/13 19:08:09;;;;;;;4.45;3.75;;;;;;;;;;10498854;23;20051;-87
2023/06/13 19:13:13;;;;;;;4.30;3.90;;;;;;;;;;10312804;28;20031;-86
2023/06/13 19:18:18;;;;;;;6.18;4.20;;;;;;;;;;10279727;28;20024;-83
2023/06/13 19:23:24;;;;;;;5.07;3.47;;;;;;;;;;10256229;28;20095;-89
2023/06/13 19:28:27;;;;;;;6.47;4.53;;;;;;;;;;10296856;28;20424;-86
2023/06/13 19:33:37;;;;;;;5.13;4.20;;;;;;;;;;10292978;28;20039;-88
2023/06/13 19:39:27;;;;;;;6.25;4.30;;;;;;;;;;10448203;23;20067;-87
2023/06/13 19:44:33;;;;;;;6.93;4.60;;;;;;;;;;10210029;28;20062;-88
2023/06/13 19:54:56;;;;;;;4.50;4.05;;;;;;;;;;10238552;28;19922;-89
2023/06/13 20:16:00;;;;;;;4.63;4.10;;;;;;;;;;10766232;22;20105;-89
2023/06/13 20:21:25;;;;;;;5.00;4.50;;;;;;;;;;10325459;23;20050;-88
2023/06/13 20:37:41;;;;;;;7.32;4.60;;;;;;;;;;10802571;23;20098;-85
2023/06/13 20:59:30;;;;;;;5.13;4.63;;;;;;;;;;10873157;23;20136;-83
2023/06/13 21:04:31;;;;;;;4.90;4.50;;;;;;;;;;10506810;23;20063;-82
2023/06/13 21:09:31;;;;;;;5.45;4.50;;;;;;;;;;10353174;23;20054;-81
2023/06/13 21:14:32;;;;;;;5.28;4.60;;;;;;;;;;10458979;23;20423;-80
2023/06/13 21:19:32;;;;;;;5.90;5.03;;;;;;;;;;10300657;28;20049;-85
2023/06/13 21:24:33;;;;;;;5.38;4.88;;;;;;;;;;10283216;28;20050;-83
2023/06/13 21:29:33;;;;;;;6.28;5.20;;;;;;;;;;10279404;28;20923;-82
2023/06/13 21:34:35;;;;;;;5.70;4.93;;;;;;;;;;10314382;28;20050;-82
2023/06/13 21:39:35;;;;;;;6.45;5.57;;;;;;;;;;10324622;28;20305;-81
2023/06/13 21:44:35;;;;;;;6.83;5.23;;;;;;;;;;10579435;23;20239;-82
2023/06/13 21:49:36;;;;;;;5.85;5.35;;;;;;;;;;10413754;23;20310;-83
2023/06/13 21:54:36;;;;;;;8.10;5.53;;;;;;;;;;10302851;28;20055;-82
2023/06/13 21:59:37;;;;;;;6.80;5.50;;;;;;;;;;11062175;23;20094;-82
2023/06/13 22:04:40;;;;;;;6.07;5.57;;;;;;;;;;10410896;23;20306;-83
2023/06/13 22:09:41;;;;;;;6.32;5.63;;;;;;;;;;10811932;23;20050;-84
2023/06/13 22:14:43;;;;;;;6.10;5.50;;;;;;;;;;10365586;23;20138;-84
2023/06/13 22:19:44;;;;;;;6.30;5.70;;;;;;;;;;10680633;23;20055;-86
2023/06/13 22:24:47;;;;;;;6.03;5.43;;;;;;;;;;10304718;28;20066;-83
2023/06/13 22:29:48;;;;;;;;;;;;;;;;;;10296888;28;20174;-83
2023/06/13 22:34:49;;;;;;;6.85;6.15;;;;;;;;;;10412619;23;19955;-84
2023/06/13 22:39:53;;;;;;;7.63;6.00;;;;;;;;;;10304278;28;20127;-86
2023/06/13 22:44:57;;;;;;;6.45;5.78;;;;;;;;;;10309389;28;20047;-85
2023/06/13 22:49:57;;;;;;;7.03;5.57;;;;;;;;;;10300923;28;20059;-87
2023/06/13 22:54:57;;;;;;;7.40;6.27;;;;;;;;;;10287020;28;20082;-86
2023/06/13 23:00:00;;;;;;;6.40;5.80;;;;;;;;;;10276963;28;20301;-83
2023/06/13 23:05:00;;;;;;;6.40;5.70;;;;;;;;;;10273812;28;20069;-83
2023/06/13 23:10:01;;;;;;;5.93;5.20;;;;;;;;;;10357473;23;20061;-83
2023/06/13 23:15:01;;;;;;;6.00;5.30;;;;;;;;;;10310056;28;20288;-86
2023/06/13 23:20:02;;;;;;;5.60;5.10;;;;;;;;;;10418773;23;20096;-85
2023/06/13 23:25:06;;;;;;;5.85;5.30;;;;;;;;;;10295941;28;20130;-85
2023/06/13 23:30:08;;;;;;;6.70;6.00;;;;;;;;;;10394257;23;20360;-82
2023/06/13 23:35:09;;;;;;;5.60;5.00;;;;;;;;;;10324029;28;20037;-84
2023/06/13 23:40:11;;;;;;;7.13;5.67;;;;;;;;;;10307054;28;20057;-83
2023/06/13 23:45:11;;;;;;;5.82;5.22;;;;;;;;;;10300175;28;20339;-86
2023/06/13 23:50:13;;;;;;;5.93;5.32;;;;;;;;;;10345023;28;20054;-83
2023/06/13 23:55:14;;;;;;;5.97;5.43;;;;;;;;;;10342698;28;20066;-83
